Latest Weather Observations for Tarcoola

IDS60801

Issued at 9:01 pm CST Tuesday 26 May 2015 (issued every 30 minutes, with the page automatically refreshed every 10 minutes)

About weather observations | Map of weather stations | Latest weather observations for SA | Other Formats
Station Details ID: 016098 Name: TARCOOLA AERO Lat: -30.71 Lon: 134.58 Height: 123.0 m
Data from the previous 72 hours. | See also: Recent months at Tarcoola
Date/Time
CST
Temp
°C
App
Temp
°C
Dew
Point
Rel
Hum
%
Delta-T
°C
Wind Press
QNH
hPa
Press
MSL
hPa
Rain
since 9 am
mm
Dir
 
Spd
km/h
Gust
km/h
Spd
kts
Gust
kts
26/09:00pm 16.6 16.2 8.3 58 4.2 CALM 0 0 0 0 1022.8 1022.7 0.0
26/08:30pm 16.9 15.8 8.3 57 4.4 SSW 4 7 2 4 1022.7 1022.6 0.0
26/08:00pm 17.8 16.0 8.1 53 5.0 WSW 7 9 4 5 1022.5 1022.4 0.0
26/07:30pm 18.0 16.2 8.0 52 5.1 SW 7 15 4 8 1022.2 1022.1 0.0
26/07:00pm 18.2 16.6 7.9 51 5.3 N 6 7 3 4 1022.0 1021.9 0.0
26/06:30pm 19.1 16.9 7.8 48 5.8 N 9 11 5 6 1021.9 1021.8 0.0
26/06:00pm 20.0 17.7 7.4 44 6.5 N 9 9 5 5 1021.7 1021.6 0.0
26/05:30pm 21.4 18.6 6.9 39 7.4 N 11 15 6 8 1021.8 1021.7 0.0
26/05:00pm 22.4 19.1 6.6 36 8.1 NNW 13 17 7 9 1021.6 1021.5 0.0
26/04:30pm 22.9 18.2 6.2 34 8.5 NNW 20 26 11 14 1021.6 1021.5 0.0
26/04:00pm 23.9 19.9 6.7 33 8.9 NNW 17 24 9 13 1021.2 1021.0 0.0
26/03:30pm 24.3 20.2 6.1 31 9.3 NNW 17 24 9 13 1021.3 1021.1 0.0
26/03:00pm 23.2 19.9 6.5 34 8.6 NNW 13 17 7 9 1021.5 1021.3 0.0
26/02:30pm 22.9 18.8 6.2 34 8.5 NNW 17 24 9 13 1021.7 1021.6 0.0
26/02:00pm 22.8 18.3 6.1 34 8.5 N 19 30 10 16 1021.8 1021.7 0.0
26/01:30pm 22.7 17.5 5.6 33 8.6 NNW 22 28 12 15 1022.2 1022.1 0.0
26/01:00pm 23.2 18.4 4.7 30 9.2 NNW 19 26 10 14 1022.4 1022.3 0.0
26/12:30pm 23.2 18.3 4.2 29 9.3 N 19 26 10 14 1023.0 1022.9 0.0
26/12:00pm 22.8 18.3 4.3 30 9.1 N 17 22 9 12 1023.4 1023.3 0.0
26/11:30am 22.3 17.9 4.8 32 8.6 N 17 24 9 13 1024.0 1023.9 0.0
26/11:00am 21.1 17.7 5.9 37 7.6 NNE 13 17 7 9 1024.8 1024.7 0.0
26/10:30am 18.0 14.3 6.5 47 5.7 NNE 15 19 8 10 1025.2 1025.1 0.0
26/10:00am 18.0 14.1 7.1 49 5.5 NNE 17 20 9 11 1025.3 1025.2 0.0
26/09:30am 16.4 13.3 7.1 54 4.6 NE 13 17 7 9 1025.4 1025.3 0.0
26/09:00am 15.2 13.4 8.0 62 3.6 ENE 7 11 4 6 1025.3 1025.2 0.0
26/08:30am 13.4 13.3 9.3 76 2.1 CALM 0 0 0 0 1025.6 1025.5 0.0
26/08:00am 12.7 12.6 9.5 81 1.6 CALM 0 0 0 0 1025.3 1025.2 0.0
26/07:30am 12.3 12.2 9.3 82 1.5 CALM 0 0 0 0 1025.0 1024.9 0.0
26/07:00am 12.0 11.8 9.0 82 1.5 CALM 0 0 0 0 1024.6 1024.5 0.0
26/06:30am 12.3 10.4 9.1 81 1.6 WSW 9 9 5 5 1024.7 1024.6 0.0
26/06:00am 12.5 11.2 9.1 80 1.7 WSW 6 9 3 5 1024.4 1024.3 0.0
26/05:30am 12.9 11.3 8.2 73 2.3 SSW 6 11 3 6 1024.3 1024.2 0.0
26/05:00am 13.4 11.4 8.5 72 2.5 E 9 11 5 6 1024.2 1024.1 0.0
26/04:30am 13.6 11.3 8.9 73 2.4 ENE 11 13 6 7 1024.5 1024.4 0.0
26/04:00am 13.0 12.9 9.4 79 1.8 CALM 0 0 0 0 1025.0 1024.9 0.0
26/03:30am 13.3 11.7 8.8 74 2.3 S 7 9 4 5 1024.9 1024.8 0.0
26/03:00am 13.3 12.0 9.2 76 2.1 NE 6 7 3 4 1025.2 1025.1 0.0
26/02:30am 13.5 11.7 8.1 70 2.7 NE 7 7 4 4 1025.3 1025.2 0.0
26/02:00am 13.6 11.6 7.2 65 3.1 ENE 7 9 4 5 1025.2 1025.1 0.0
26/01:30am 13.6 11.6 6.9 64 3.2 ENE 7 9 4 5 1025.2 1025.1 0.0
26/01:00am 13.6 11.1 6.7 63 3.3 E 9 9 5 5 1025.2 1025.1 0.0
26/12:30am 13.4 11.4 7.2 66 3.0 ENE 7 9 4 5 1025.6 1025.5 0.0
26/12:00am 13.5 12.8 7.1 65 3.1 CALM 0 0 0 0 1025.9 1025.8 0.0
 
Date/Time
CST
Temp
°C
App
Temp
°C
Dew
Point
Rel
Hum
%
Delta-T
°C
Wind Press
QNH
hPa
Press
MSL
hPa
Rain
since 9 am
mm
Dir
 
Spd
km/h
Gust
km/h
Spd
kts
Gust
kts
25/11:30pm 13.6 12.8 6.7 63 3.3 CALM 0 0 0 0 1026.2 1026.1 0.0
25/11:00pm 13.3 11.4 6.6 64 3.2 ENE 6 6 3 3 1026.0 1025.9 0.0
25/10:30pm 13.5 11.3 6.4 62 3.4 ENE 7 7 4 4 1025.8 1025.7 0.0
25/10:00pm 13.8 13.0 6.7 62 3.4 CALM 0 0 0 0 1026.4 1026.3 0.0
25/09:30pm 14.4 11.8 6.0 57 4.0 ENE 9 11 5 6 1025.9 1025.8 0.0
25/09:00pm 14.8 11.8 6.1 56 4.2 E 11 13 6 7 1025.7 1025.6 0.0
25/08:30pm 14.9 12.4 6.5 57 4.1 ENE 9 11 5 6 1026.0 1025.9 0.0
25/08:00pm 15.5 12.9 6.2 54 4.5 E 9 11 5 6 1026.0 1025.9 0.0
25/07:30pm 14.9 12.5 7.0 59 3.9 E 9 11 5 6 1025.9 1025.8 0.0
25/07:00pm 15.0 12.5 6.6 57 4.1 NE 9 11 5 6 1025.7 1025.6 0.0
25/06:30pm 15.9 13.3 6.3 53 4.7 E 9 13 5 7 1025.2 1025.1 0.0
25/06:00pm 16.1 14.0 6.5 53 4.7 E 7 9 4 5 1025.1 1025.0 0.0
25/05:30pm 16.8 16.0 6.3 50 5.1 CALM 0 0 0 0 1025.5 1025.4 0.0
25/05:00pm 17.6 15.5 5.9 46 5.7 E 6 7 3 4 1024.7 1024.6 0.0
25/04:30pm 18.0 16.3 5.9 45 5.9 ENE 4 11 2 6 1024.8 1024.7 0.0
25/04:00pm 18.1 15.4 5.7 44 6.1 ENE 9 13 5 7 1025.0 1024.9 0.0
25/03:30pm 18.2 16.0 5.4 43 6.2 ENE 6 9 3 5 1024.7 1024.6 0.0
25/03:00pm 18.3 15.9 5.2 42 6.3 NE 7 11 4 6 1024.7 1024.6 0.0
25/02:30pm 18.3 15.9 5.2 42 6.3 NNE 7 11 4 6 1024.8 1024.7 0.0
25/02:00pm 18.6 15.8 5.1 41 6.6 N 9 13 5 7 1025.2 1025.1 0.0
25/01:30pm 18.6 15.4 5.1 41 6.5 NE 11 15 6 8 1024.8 1024.7 0.0
25/01:00pm 18.4 15.2 4.9 41 6.5 ENE 11 17 6 9 1025.1 1025.0 0.0
25/12:30pm 17.9 14.4 5.5 44 6.0 ENE 13 17 7 9 1025.5 1025.4 0.0
25/12:00pm 16.9 14.2 5.5 47 5.5 ENE 9 17 5 9 1026.2 1026.1 0.0
25/11:30am 16.2 13.4 5.2 48 5.2 NE 9 13 5 7 1026.7 1026.6 0.0
25/11:00am 16.0 12.5 5.3 49 5.1 ENE 13 17 7 9 1026.7 1026.6 0.0
25/10:30am 15.8 12.2 5.1 49 5.1 NE 13 19 7 10 1026.9 1026.8 0.0
25/10:00am 15.6 11.7 5.2 50 5.0 NNE 15 20 8 11 1028.2 1028.1 0.0
25/09:30am 14.8 10.4 4.8 51 4.7 ENE 17 22 9 12 1027.2 1027.1 0.0
25/09:00am 14.0 10.4 4.9 54 4.2 ENE 13 17 7 9 1027.0 1026.9 0.0
25/08:30am 12.4 10.0 5.1 61 3.4 NE 7 13 4 7 1027.2 1027.1 0.0
25/08:00am 11.1 8.2 4.6 64 3.0 ENE 9 13 5 7 1026.7 1026.6 0.0
25/07:30am 10.5 7.6 4.6 67 2.6 ENE 9 11 5 6 1026.8 1026.7 0.0
25/07:00am 10.9 8.0 4.4 64 2.9 ENE 9 11 5 6 1026.9 1026.8 0.0
25/06:30am 10.6 9.3 4.3 65 2.8 CALM 0 0 0 0 1026.5 1026.4 0.0
25/06:00am 10.9 8.0 4.6 65 2.8 ENE 9 13 5 7 1026.0 1025.9 0.0
25/05:30am 11.1 8.2 4.6 64 2.9 ENE 9 13 5 7 1026.2 1026.1 0.0
25/05:00am 10.7 7.9 5.0 68 2.6 ENE 9 13 5 7 1025.9 1025.8 0.0
25/04:30am 10.3 8.9 5.3 71 2.3 ENE 2 9 1 5 1026.1 1026.0 0.0
25/04:00am 10.3 9.2 5.1 70 2.4 CALM 0 7 0 4 1026.2 1026.1 0.0
25/03:30am 10.4 7.9 4.8 68 2.5 E 7 11 4 6 1025.6 1025.5 0.0
25/03:00am 9.8 6.5 4.8 71 2.2 E 11 11 6 6 1025.4 1025.3 0.0
25/02:30am 8.7 6.8 4.9 77 1.7 E 4 11 2 6 1025.8 1025.7 0.0
25/02:00am 8.8 7.8 5.4 79 1.5 CALM 0 0 0 0 1026.1 1026.0 0.0
25/01:30am 8.9 7.9 5.5 79 1.5 CALM 0 0 0 0 1026.2 1026.1 0.0
25/01:00am 9.1 8.1 5.5 78 1.6 CALM 0 0 0 0 1026.0 1025.9 0.0
25/12:30am 9.4 8.4 5.8 78 1.6 CALM 0 0 0 0 1026.1 1026.0 0.0
25/12:00am 10.1 9.1 5.5 73 2.1 CALM 0 0 0 0 1026.4 1026.3 0.0
 
Date/Time
CST
Temp
°C
App
Temp
°C
Dew
Point
Rel
Hum
%
Delta-T
°C
Wind Press
QNH
hPa
Press
MSL
hPa
Rain
since 9 am
mm
Dir
 
Spd
km/h
Gust
km/h
Spd
kts
Gust
kts
24/11:30pm 11.3 10.2 5.2 66 2.8 CALM 0 0 0 0 1026.6 1026.5 0.0
24/11:00pm 12.5 11.0 5.2 61 3.4 SE 2 7 1 4 1026.4 1026.3 0.0
24/10:30pm 12.9 11.9 5.6 61 3.4 CALM 0 6 0 3 1026.4 1026.3 0.0
24/10:00pm 13.7 11.3 5.3 57 4.0 SE 7 11 4 6 1026.1 1026.0 0.0
24/09:30pm 13.4 12.0 5.3 58 3.8 SE 2 11 1 6 1026.1 1026.0 0.0
24/09:00pm 14.2 11.4 5.0 54 4.3 SE 9 11 5 6 1026.1 1026.0 0.0
24/08:30pm 14.4 13.0 5.7 56 4.1 ESE 2 7 1 4 1025.8 1025.7 0.0
24/08:00pm 13.6 12.8 6.5 62 3.4 CALM 0 7 0 4 1025.9 1025.8 0.0
24/07:30pm 14.2 13.2 5.8 57 4.0 CALM 0 0 0 0 1025.8 1025.7 0.0
24/07:00pm 13.9 11.6 5.5 57 4.0 SSE 7 9 4 5 1025.8 1025.7 0.0
24/06:30pm 15.3 12.6 5.5 52 4.7 SSE 9 11 5 6 1025.5 1025.4 0.0
24/06:00pm 15.8 13.1 5.4 50 5.0 SSE 9 11 5 6 1025.2 1025.1 0.0
24/05:30pm 16.2 14.4 5.2 48 5.2 ESE 4 9 2 5 1025.1 1025.0 0.0
24/05:00pm 17.3 14.1 4.9 44 6.0 ESE 11 15 6 8 1025.0 1024.9 0.0
24/04:30pm 17.5 13.9 5.1 44 6.0 ESE 13 17 7 9 1024.9 1024.8 0.0
24/04:00pm 17.7 14.2 5.3 44 6.0 E 13 17 7 9 1024.9 1024.8 0.0
24/03:30pm 17.4 13.0 5.0 44 5.9 ENE 17 20 9 11 1024.9 1024.8 0.0
24/03:00pm 17.3 13.0 5.3 45 5.8 ENE 17 22 9 12 1024.8 1024.7 0.0
24/02:30pm 16.9 12.7 5.5 47 5.5 ENE 17 20 9 11 1025.3 1025.2 0.0
24/02:00pm 16.6 12.0 5.6 48 5.3 ENE 19 20 10 11 1025.5 1025.4 0.0
24/01:30pm 16.4 12.3 6.0 50 5.0 ENE 17 20 9 11 1025.8 1025.7 0.0
24/01:00pm 16.5 12.8 6.1 50 5.1 NE 15 17 8 9 1026.1 1026.0 0.0
24/12:30pm 16.3 12.8 5.6 49 5.1 ENE 13 17 7 9 1026.5 1026.4 0.0
24/12:00pm 16.3 12.5 5.6 49 5.1 NE 15 20 8 11 1026.6 1026.5 0.0
24/11:30am 16.3 12.1 5.9 50 5.0 NE 17 22 9 12 1027.0 1026.9 0.0
24/11:00am 15.7 12.3 5.9 52 4.7 NE 13 20 7 11 1027.4 1027.3 0.0
24/10:30am 14.4 11.8 6.0 57 4.0 ENE 9 11 5 6 1027.5 1027.4 0.0
24/10:00am 13.2 10.5 5.6 60 3.6 NE 9 13 5 7 1027.5 1027.4 0.0
24/09:30am 12.8 10.1 5.5 61 3.4 NE 9 13 5 7 1027.2 1027.1 0.0
24/09:00am 11.6 8.9 5.7 67 2.7 ENE 9 13 5 7 1027.1 1027.0 0.0
24/08:30am 10.5 8.2 5.9 73 2.1 ENE 7 9 4 5 1027.2 1027.1 0.0
24/08:00am 9.6 8.6 5.6 76 1.8 CALM 0 0 0 0 1027.0 1026.9 0.0
24/07:30am 9.5 7.2 4.7 72 2.1 ENE 6 9 3 5 1026.6 1026.5 0.0
24/07:00am 9.4 6.5 4.8 73 2.1 ENE 9 11 5 6 1026.5 1026.4 0.0
24/06:30am 9.4 6.9 4.6 72 2.1 ENE 7 7 4 4 1026.2 1026.1 0.0
24/06:00am 9.7 6.8 4.5 70 2.3 ENE 9 13 5 7 1025.9 1025.8 0.0
24/05:30am 9.0 6.1 4.8 75 1.9 NE 9 11 5 6 1025.7 1025.6 0.0
24/05:00am 9.0 6.1 4.4 73 2.0 ENE 9 11 5 6 1025.4 1025.3 0.0
24/04:30am 8.8 6.2 4.4 74 1.9 ENE 7 9 4 5 1025.5 1025.4 0.0
24/04:00am 8.7 5.4 4.7 76 1.8 E 11 13 6 7 1025.5 1025.4 0.0
24/03:30am 7.6 4.6 4.2 79 1.5 ENE 9 11 5 6 1025.6 1025.5 0.0
24/03:00am 7.5 4.8 3.9 78 1.5 ENE 7 7 4 4 1025.6 1025.5 0.0
24/02:30am 7.9 6.6 4.1 77 1.6 CALM 0 0 0 0 1025.6 1025.5 0.0
24/02:00am 7.6 4.5 3.6 76 1.7 NE 9 11 5 6 1025.7 1025.6 0.0
24/01:30am 8.0 5.3 3.5 73 1.9 NE 7 9 4 5 1025.8 1025.7 0.0
24/01:00am 9.0 6.3 3.6 69 2.4 NE 7 9 4 5 1026.1 1026.0 0.0
24/12:30am 10.4 7.1 4.5 67 2.6 NNE 11 13 6 7 1026.1 1026.0 0.0
24/12:00am 10.1 7.2 4.5 68 2.5 NE 9 11 5 6 1026.1 1026.0 0.0
 
Date/Time
CST
Temp
°C
App
Temp
°C
Dew
Point
Rel
Hum
%
Delta-T
°C
Wind Press
QNH
hPa
Press
MSL
hPa
Rain
since 9 am
mm
Dir
 
Spd
km/h
Gust
km/h
Spd
kts
Gust
kts
23/11:30pm 9.8 6.9 4.6 70 2.3 NE 9 9 5 5 1026.3 1026.2 0.0
23/11:00pm 9.9 7.4 4.7 70 2.3 NE 7 9 4 5 1026.2 1026.1 0.0
23/10:30pm 10.6 8.0 4.3 65 2.8 ENE 7 9 4 5 1026.3 1026.2 0.0
23/10:00pm 11.1 8.6 4.6 64 3.0 ENE 7 7 4 4 1026.5 1026.4 0.0
23/09:30pm 11.2 8.9 4.9 65 2.9 NE 6 9 3 5 1026.6 1026.5 0.0

Other Formats:

Comma delimited format used in spreadsheet applications
http://www.bom.gov.au/fwo/IDS60801/IDS60801.94655.axf

JavaScript Object Notation format (JSON) in row-major order
http://www.bom.gov.au/fwo/IDS60801/IDS60801.94655.json